createdAt,value
2019-04-26T00:01:42.231Z,100017.23
2019-04-26T00:04:16.239Z,100032.97
2019-04-26T00:06:45.070Z,100035.17
2019-04-26T00:09:31.968Z,100047.16
2019-04-26T00:12:18.590Z,100055.52
2019-04-26T00:15:08.368Z,100068.48
2019-04-26T00:17:46.800Z,100081.89
2019-04-26T00:20:17.663Z,100065.34
2019-04-26T00:22:46.628Z,100073.80
2019-04-26T00:25:16.557Z,100078.38
2019-04-26T00:27:47.236Z,100072.69
2019-04-26T00:30:16.995Z,100070.03
2019-04-26T00:32:46.519Z,100061.33
2019-04-26T00:35:15.895Z,100062.84
2019-04-26T00:37:44.835Z,100068.55
2019-04-26T00:40:18.282Z,100063.05
2019-04-26T00:42:46.868Z,100061.08
2019-04-26T00:45:16.660Z,100057.87
2019-04-26T00:47:48.134Z,100064.07
2019-04-26T00:50:17.330Z,100055.78
2019-04-26T00:52:47.576Z,100058.14
2019-04-26T00:55:16.257Z,100047.13
2019-04-26T00:57:46.902Z,100048.56
2019-04-26T01:00:18.104Z,100055.39
2019-04-26T01:02:51.069Z,100053.81
2019-04-26T01:05:25.461Z,100038.23
2019-04-26T01:07:55.945Z,100038.23
2019-04-26T01:10:25.873Z,100036.55
2019-04-26T01:12:54.924Z,100031.34
2019-04-26T01:15:24.892Z,100038.81
2019-04-26T01:17:54.539Z,100032.38
2019-04-26T01:20:24.607Z,100028.84
2019-04-26T01:22:54.100Z,100034.50
2019-04-26T01:25:53.509Z,100020.19
2019-04-26T01:28:30.249Z,100008.89
2019-04-26T01:30:59.532Z,99998.17
2019-04-26T01:33:30.211Z,100007.87
2019-04-26T01:35:59.077Z,100004.94
2019-04-26T01:38:27.835Z,99994.83
2019-04-26T01:41:00.022Z,99993.41
2019-04-26T01:43:46.127Z,99999.48
2019-04-26T01:46:21.715Z,99991.63
2019-04-26T01:49:01.701Z,99992.27
2019-04-26T01:51:38.461Z,100001.84
2019-04-26T01:54:09.651Z,100009.77
2019-04-26T01:56:42.131Z,100021.81
2019-04-26T01:59:12.009Z,100022.39
2019-04-26T02:02:21.339Z,100030.31
2019-04-26T02:04:55.677Z,100039.70
2019-04-26T02:07:41.779Z,100049.10
2019-04-26T02:10:12.438Z,100046.24
2019-04-26T02:12:41.060Z,100050.78
2019-04-26T02:15:11.627Z,100055.88
2019-04-26T02:17:42.418Z,100060.08
2019-04-26T02:20:23.220Z,100058.22
2019-04-26T02:23:04.502Z,100060.02
2019-04-26T02:25:34.600Z,100048.42
2019-04-26T02:28:04.406Z,100038.98
2019-04-26T02:30:34.647Z,100036.73
2019-04-26T02:33:06.716Z,100045.75
2019-04-26T02:35:35.889Z,100056.03
2019-04-26T02:38:05.533Z,100064.33
2019-04-26T02:40:36.841Z,100056.78
2019-04-26T02:43:07.799Z,100060.36
2019-04-26T02:46:02.981Z,100065.08
2019-04-26T02:48:46.246Z,100078.63
2019-04-26T02:51:19.030Z,100086.66
2019-04-26T02:54:13.657Z,100091.87
2019-04-26T02:56:44.223Z,100097.25
2019-04-26T02:59:47.547Z,100109.08
2019-04-26T03:02:30.154Z,100107.98
2019-04-26T03:05:03.998Z,100100.96
2019-04-26T03:07:53.882Z,100090.38
2019-04-26T03:10:28.219Z,100077.34
2019-04-26T03:12:58.423Z,100071.00
2019-04-26T03:15:43.528Z,100069.98
2019-04-26T03:18:35.615Z,100077.53
2019-04-26T03:21:13.093Z,100073.41
2019-04-26T03:23:58.209Z,100075.75
2019-04-26T03:26:44.909Z,100072.17
2019-04-26T03:29:46.078Z,100077.96
2019-04-26T03:32:56.001Z,100074.69
2019-04-26T03:35:56.903Z,100080.66
2019-04-26T03:38:35.732Z,100080.06
2019-04-26T03:41:27.159Z,100091.53
2019-04-26T03:44:18.090Z,100097.27
2019-04-26T03:46:50.877Z,100105.04
2019-04-26T03:49:45.756Z,100101.15
2019-04-26T03:52:45.428Z,100103.23
2019-04-26T03:55:52.971Z,100086.50
2019-04-26T03:59:23.395Z,100077.23
2019-04-26T04:02:26.597Z,100088.58
2019-04-26T04:05:17.785Z,100092.26
2019-04-26T04:07:51.317Z,100099.88
2019-04-26T04:10:24.662Z,100103.11
2019-04-26T04:13:01.087Z,100104.83
2019-04-26T04:15:40.400Z,100102.98
2019-04-26T04:18:16.350Z,100107.27
2019-04-26T04:21:11.679Z,100109.59
2019-04-26T04:23:57.176Z,100112.33
2019-04-26T04:26:39.079Z,100111.97
2019-04-26T04:29:50.597Z,100123.39
2019-04-26T04:32:32.303Z,100144.14
2019-04-26T04:35:06.562Z,100163.78
2019-04-26T04:38:04.244Z,100172.33
2019-04-26T04:40:36.351Z,100157.17
2019-04-26T04:43:25.284Z,100154.98
2019-04-26T04:46:39.724Z,100146.77
2019-04-26T04:49:27.156Z,100138.34
2019-04-26T04:52:36.889Z,100155.27
2019-04-26T04:55:13.548Z,100150.97
2019-04-26T04:58:02.554Z,100125.80
2019-04-26T05:00:57.314Z,100123.66
2019-04-26T05:03:40.979Z,100124.14
2019-04-26T05:06:34.361Z,100125.88
2019-04-26T05:09:08.294Z,100145.03
2019-04-26T05:11:50.051Z,100157.08
2019-04-26T05:14:29.891Z,100162.61
2019-04-26T05:17:20.291Z,100165.17
2019-04-26T05:20:11.341Z,100180.44
2019-04-26T05:23:03.755Z,100184.33
2019-04-26T05:26:43.622Z,100174.66
2019-04-26T05:30:08.060Z,100177.61
2019-04-26T05:33:13.154Z,100178.16
2019-04-26T05:36:01.558Z,100174.44
2019-04-26T05:39:00.377Z,100187.59
2019-04-26T05:42:08.140Z,100200.83
2019-04-26T05:45:17.181Z,100214.14
2019-04-26T05:48:08.459Z,100212.63
2019-04-26T05:51:14.244Z,100205.70
2019-04-26T05:54:24.916Z,100199.91
2019-04-26T05:57:14.124Z,100203.34
2019-04-26T06:00:18.106Z,100195.06
2019-04-26T06:03:13.919Z,100209.61
2019-04-26T06:06:26.296Z,100215.09
2019-04-26T06:09:17.229Z,100229.70
2019-04-26T06:11:56.620Z,100220.97
2019-04-26T06:14:49.143Z,100226.49
2019-04-26T06:18:23.675Z,100217.14
2019-04-26T06:21:08.468Z,100227.36
2019-04-26T06:24:10.178Z,100223.89
2019-04-26T06:27:19.288Z,100223.14
2019-04-26T06:29:59.624Z,100206.02
2019-04-26T06:32:33.370Z,100204.40
2019-04-26T06:35:06.859Z,100219.25
2019-04-26T06:37:47.599Z,100225.05
2019-04-26T06:40:29.084Z,100234.89
2019-04-26T06:43:08.035Z,100235.97
2019-04-26T06:46:03.270Z,100229.06
2019-04-26T06:48:45.420Z,100220.63
2019-04-26T06:51:24.234Z,100221.30
2019-04-26T06:54:16.124Z,100218.18
2019-04-26T06:57:19.221Z,100225.18
2019-04-26T07:00:08.749Z,100249.92
2019-04-26T07:03:11.931Z,100265.42
2019-04-26T07:05:44.825Z,100273.23
2019-04-26T07:08:27.271Z,100258.72
2019-04-26T07:12:07.905Z,100249.66
2019-04-26T07:14:59.476Z,100256.36
2019-04-26T07:18:22.150Z,100251.70
2019-04-26T07:21:09.052Z,100257.14
2019-04-26T07:24:19.423Z,100256.56
2019-04-26T07:27:21.222Z,100242.80
2019-04-26T07:30:14.547Z,100243.67
2019-04-26T07:32:59.857Z,100253.35
2019-04-26T07:35:37.558Z,100254.00
2019-04-26T07:39:10.416Z,100259.80
2019-04-26T07:41:56.222Z,100259.31
2019-04-26T07:44:56.503Z,100261.73
2019-04-26T07:48:18.202Z,100267.03
2019-04-26T07:51:23.181Z,100261.02
2019-04-26T07:54:01.152Z,100259.25
2019-04-26T07:56:49.023Z,100271.75
2019-04-26T07:59:40.501Z,100273.55
2019-04-26T08:02:56.698Z,100280.98
2019-04-26T08:05:40.803Z,100290.05
2019-04-26T08:08:10.828Z,100292.52
2019-04-26T08:10:39.984Z,100276.94
2019-04-26T08:13:11.682Z,100279.41
2019-04-26T08:15:58.313Z,100286.50
2019-04-26T08:18:37.525Z,100280.63
2019-04-26T08:21:20.571Z,100284.23
2019-04-26T08:23:57.842Z,100278.75
2019-04-26T08:26:26.536Z,100277.56
2019-04-26T08:29:00.699Z,100291.86
2019-04-26T08:31:28.122Z,100301.14
2019-04-26T08:34:01.273Z,100296.78
2019-04-26T08:36:34.040Z,100309.63
2019-04-26T08:39:06.970Z,100311.99
2019-04-26T08:41:39.200Z,100309.92
2019-04-26T08:44:22.872Z,100309.92
2019-04-26T08:47:19.800Z,100315.98
2019-04-26T08:50:13.281Z,100323.79
2019-04-26T08:52:40.381Z,100321.33
2019-04-26T08:55:09.317Z,100327.78
2019-04-26T08:57:40.137Z,100313.99
2019-04-26T09:00:12.424Z,100342.80
2019-04-26T09:03:10.785Z,100340.99
2019-04-26T09:05:40.088Z,100350.02
2019-04-26T09:08:12.079Z,100354.65
2019-04-26T09:10:43.211Z,100370.91
2019-04-26T09:13:13.461Z,100374.54
2019-04-26T09:16:05.788Z,100382.23
2019-04-26T09:18:43.675Z,100372.72
2019-04-26T09:21:16.996Z,100359.77
2019-04-26T09:24:08.390Z,100363.70
2019-04-26T09:27:02.422Z,100370.70
2019-04-26T09:29:36.082Z,100368.47
2019-04-26T09:32:32.720Z,100367.33
2019-04-26T09:35:01.595Z,100365.13
2019-04-26T09:37:30.869Z,100373.45
2019-04-26T09:40:09.619Z,100369.81
2019-04-26T09:42:41.057Z,100375.13
2019-04-26T09:45:27.881Z,100381.23
2019-04-26T09:48:22.295Z,100392.25
2019-04-26T09:50:55.263Z,100394.30
2019-04-26T09:53:27.763Z,100393.41
2019-04-26T09:55:56.344Z,100397.11
2019-04-26T09:58:26.906Z,100401.73
2019-04-26T10:00:56.731Z,100407.48
2019-04-26T10:03:28.684Z,100417.56
2019-04-26T10:05:57.627Z,100409.72
2019-04-26T10:08:29.145Z,100402.83
2019-04-26T10:10:59.091Z,100400.01
2019-04-26T10:13:45.007Z,100406.33
2019-04-26T10:16:33.483Z,100403.55
2019-04-26T10:19:09.866Z,100401.63
2019-04-26T10:21:39.048Z,100401.92
2019-04-26T10:24:09.619Z,100406.73
2019-04-26T10:26:39.427Z,100416.86
2019-04-26T10:29:13.010Z,100425.10
2019-04-26T10:31:43.108Z,100428.25
2019-04-26T10:34:12.916Z,100423.13
2019-04-26T10:36:43.703Z,100425.48
2019-04-26T10:39:12.834Z,100428.89
2019-04-26T10:41:41.554Z,100432.67
2019-04-26T10:44:11.612Z,100427.81
2019-04-26T10:46:54.870Z,100427.35
2019-04-26T10:49:43.140Z,100425.52
2019-04-26T10:52:28.496Z,100422.08
2019-04-26T10:55:17.439Z,100422.38
2019-04-26T10:57:46.791Z,100421.98
2019-04-26T11:00:24.299Z,100425.93
2019-04-26T11:02:52.858Z,100441.21
2019-04-26T11:05:23.446Z,100438.11
2019-04-26T11:07:53.420Z,100434.66
2019-04-26T11:10:24.473Z,100431.20
2019-04-26T11:12:53.240Z,100438.80
2019-04-26T11:15:23.239Z,100422.53
2019-04-26T11:17:51.785Z,100426.57
2019-04-26T11:20:20.590Z,100426.69
2019-04-26T11:22:50.660Z,100429.44
2019-04-26T11:25:19.525Z,100431.95
2019-04-26T11:27:48.681Z,100421.89
2019-04-26T11:30:20.892Z,100423.95
2019-04-26T11:32:47.969Z,100428.28
2019-04-26T11:35:16.887Z,100431.78
2019-04-26T11:37:50.769Z,100437.58
2019-04-26T11:40:20.910Z,100436.78
2019-04-26T11:42:49.632Z,100443.33
2019-04-26T11:45:20.157Z,100442.45
2019-04-26T11:47:56.216Z,100452.13
2019-04-26T11:50:20.694Z,100459.38
2019-04-26T11:52:49.642Z,100463.57
2019-04-26T11:55:20.075Z,100468.86
2019-04-26T11:57:50.875Z,100479.80
2019-04-26T12:00:34.095Z,100483.81
2019-04-26T12:03:05.011Z,100486.19
2019-04-26T12:05:40.684Z,100484.54
2019-04-26T12:08:12.455Z,100480.73
2019-04-26T12:10:44.342Z,100483.92
2019-04-26T12:13:11.333Z,100478.52
2019-04-26T12:15:43.766Z,100476.62
2019-04-26T12:18:11.649Z,100469.27
2019-04-26T12:20:40.652Z,100478.69
2019-04-26T12:23:13.711Z,100497.02
2019-04-26T12:25:43.652Z,100496.53
2019-04-26T12:28:11.454Z,100495.05
2019-04-26T12:30:42.110Z,100483.41
2019-04-26T12:33:10.665Z,100479.62
2019-04-26T12:35:39.251Z,100487.64
2019-04-26T12:38:09.185Z,100479.44
2019-04-26T12:40:37.727Z,100481.69
2019-04-26T12:43:08.600Z,100488.08
2019-04-26T12:45:47.351Z,100487.77
2019-04-26T12:48:17.634Z,100487.14
2019-04-26T12:50:48.167Z,100490.33
2019-04-26T12:53:18.122Z,100504.30
2019-04-26T12:55:49.155Z,100504.37
2019-04-26T12:58:17.560Z,100498.99
2019-04-26T13:00:53.694Z,100497.52
2019-04-26T13:03:20.639Z,100501.41
2019-04-26T13:05:49.781Z,100497.98
2019-04-26T13:08:18.980Z,100504.36
2019-04-26T13:11:14.976Z,100495.64
2019-04-26T13:13:46.689Z,100504.06
2019-04-26T13:16:26.361Z,100507.44
2019-04-26T13:18:58.261Z,100507.64
2019-04-26T13:21:27.138Z,100509.77
2019-04-26T13:23:55.694Z,100508.99
2019-04-26T13:26:24.447Z,100528.57
2019-04-26T13:28:57.013Z,100528.86
2019-04-26T13:31:31.305Z,100526.38
2019-04-26T13:33:58.369Z,100521.46
2019-04-26T13:36:29.009Z,100522.01
2019-04-26T13:38:57.826Z,100530.30
2019-04-26T13:41:28.054Z,100539.34
2019-04-26T13:43:57.125Z,100535.05
2019-04-26T13:46:44.713Z,100541.89
2019-04-26T13:49:21.143Z,100540.83
2019-04-26T13:51:49.701Z,100534.33
2019-04-26T13:54:21.037Z,100525.59
2019-04-26T13:56:48.917Z,100527.48
2019-04-26T13:59:17.466Z,100521.46
2019-04-26T14:01:46.308Z,100526.44
2019-04-26T14:04:15.221Z,100530.65
2019-04-26T14:06:45.018Z,100539.55
2019-04-26T14:09:16.669Z,100545.09
2019-04-26T14:11:48.872Z,100543.13
2019-04-26T14:14:17.840Z,100551.33
2019-04-26T14:16:46.408Z,100564.59
2019-04-26T14:19:16.779Z,100560.55
2019-04-26T14:21:47.295Z,100565.60
2019-04-26T14:24:53.074Z,100571.78
2019-04-26T14:27:29.940Z,100565.63
2019-04-26T14:30:02.454Z,100554.77
2019-04-26T14:32:29.400Z,100555.77
2019-04-26T14:35:01.565Z,100563.56
2019-04-26T14:37:30.505Z,100555.83
2019-04-26T14:40:16.597Z,100551.77
2019-04-26T14:42:42.011Z,100554.41
2019-04-26T14:45:07.322Z,100545.34
2019-04-26T14:47:46.834Z,100540.25
2019-04-26T14:50:13.813Z,100542.14
2019-04-26T14:52:37.817Z,100553.05
2019-04-26T14:55:06.562Z,100553.37
2019-04-26T14:57:35.652Z,100559.77
2019-04-26T15:00:05.034Z,100568.68
2019-04-26T15:02:55.867Z,100578.81
2019-04-26T15:05:50.570Z,100579.89
2019-04-26T15:08:25.306Z,100578.09
2019-04-26T15:11:00.969Z,100582.25
2019-04-26T15:13:26.033Z,100578.27
2019-04-26T15:15:54.619Z,100573.84
2019-04-26T15:18:25.037Z,100568.34
2019-04-26T15:20:57.376Z,100567.73
2019-04-26T15:23:28.580Z,100572.28
2019-04-26T15:25:59.396Z,100582.50
2019-04-26T15:28:29.349Z,100581.56
2019-04-26T15:30:58.309Z,100578.20
2019-04-26T15:33:26.867Z,100584.44
2019-04-26T15:35:56.160Z,100582.33
2019-04-26T15:38:26.093Z,100579.36
2019-04-26T15:41:11.298Z,100580.75
2019-04-26T15:43:42.856Z,100575.38
2019-04-26T15:46:24.293Z,100578.83
2019-04-26T15:49:18.749Z,100580.77
2019-04-26T15:51:47.685Z,100587.80
2019-04-26T15:54:17.809Z,100585.37
2019-04-26T15:56:49.427Z,100581.39
2019-04-26T15:59:18.386Z,100586.85
2019-04-26T16:01:49.368Z,100586.85
2019-04-26T16:04:18.510Z,100582.47
2019-04-26T16:06:52.194Z,100593.37
2019-04-26T16:09:22.989Z,100596.98
2019-04-26T16:11:55.285Z,100603.70
2019-04-26T16:14:24.894Z,100597.98
2019-04-26T16:16:58.333Z,100602.66
2019-04-26T16:19:27.839Z,100594.45
2019-04-26T16:21:58.140Z,100591.92
2019-04-26T16:24:27.909Z,100580.59
2019-04-26T16:27:08.905Z,100582.08
2019-04-26T16:30:03.757Z,100578.42
2019-04-26T16:32:58.859Z,100582.39
2019-04-26T16:35:29.917Z,100584.73
2019-04-26T16:38:22.892Z,100585.01
2019-04-26T16:40:53.536Z,100586.81
2019-04-26T16:43:37.038Z,100584.16
2019-04-26T16:46:02.137Z,100588.47
2019-04-26T16:48:31.257Z,100589.55
2019-04-26T16:51:08.554Z,100587.82
2019-04-26T16:53:46.389Z,100582.52
2019-04-26T16:56:05.492Z,100583.68
2019-04-26T16:58:38.268Z,100582.20
2019-04-26T17:01:10.091Z,100582.27
2019-04-26T17:03:43.955Z,100581.03
2019-04-26T17:06:11.449Z,100591.63
2019-04-26T17:08:43.341Z,100593.56
2019-04-26T17:11:12.418Z,100586.09
2019-04-26T17:13:50.638Z,100581.35
2019-04-26T17:16:19.935Z,100592.36
2019-04-26T17:18:48.847Z,100604.86
2019-04-26T17:21:22.336Z,100603.22
2019-04-26T17:24:24.848Z,100606.11
2019-04-26T17:26:59.799Z,100614.98
2019-04-26T17:29:28.753Z,100623.70
2019-04-26T17:32:00.475Z,100619.41
2019-04-26T17:34:30.267Z,100619.16
2019-04-26T17:37:09.388Z,100623.09
2019-04-26T17:39:34.926Z,100624.94
2019-04-26T17:42:05.651Z,100626.02
2019-04-26T17:44:34.637Z,100632.72
2019-04-26T17:47:08.301Z,100629.73
2019-04-26T17:49:39.041Z,100628.28
2019-04-26T17:52:06.900Z,100624.83
2019-04-26T17:54:46.287Z,100629.66
2019-04-26T17:57:08.885Z,100640.91
2019-04-26T17:59:45.224Z,100639.18
2019-04-26T18:02:20.620Z,100634.36
2019-04-26T18:04:43.103Z,100638.76
2019-04-26T18:07:34.723Z,100635.48
2019-04-26T18:09:46.752Z,100632.02
2019-04-26T18:12:17.752Z,100624.31
2019-04-26T18:14:46.682Z,100625.48
2019-04-26T18:17:27.495Z,100618.03
2019-04-26T18:20:21.028Z,100621.78
2019-04-26T18:22:54.764Z,100626.48
2019-04-26T18:25:23.455Z,100630.48
2019-04-26T18:27:53.496Z,100620.11
2019-04-26T18:30:24.688Z,100619.19
2019-04-26T18:32:54.932Z,100624.48
2019-04-26T18:35:25.914Z,100626.73
2019-04-26T18:37:54.527Z,100625.81
2019-04-26T18:40:23.466Z,100632.88
2019-04-26T18:42:55.109Z,100634.16
2019-04-26T18:45:29.674Z,100620.61
2019-04-26T18:48:01.396Z,100609.48
2019-04-26T18:50:28.417Z,100611.00
2019-04-26T18:53:19.789Z,100608.83
2019-04-26T18:55:48.942Z,100607.45
2019-04-26T18:58:23.606Z,100614.72
2019-04-26T19:00:57.346Z,100612.77
2019-04-26T19:03:29.971Z,100620.17
2019-04-26T19:05:58.510Z,100623.41
2019-04-26T19:08:28.992Z,100618.62
2019-04-26T19:11:03.353Z,100620.24
2019-04-26T19:13:46.237Z,100619.22
2019-04-26T19:16:34.394Z,100631.58
2019-04-26T19:19:15.343Z,100622.79
2019-04-26T19:21:47.416Z,100625.84
2019-04-26T19:24:20.961Z,100626.69
2019-04-26T19:26:52.349Z,100642.84
2019-04-26T19:29:27.064Z,100648.84
2019-04-26T19:31:52.205Z,100664.58
2019-04-26T19:34:30.142Z,100676.12
2019-04-26T19:36:59.771Z,100690.35
2019-04-26T19:39:33.296Z,100687.84
2019-04-26T19:42:02.506Z,100691.13
2019-04-26T19:44:31.719Z,100690.15
2019-04-26T19:47:27.135Z,100684.84
2019-04-26T19:50:11.457Z,100698.30
2019-04-26T19:52:57.866Z,100702.34
2019-04-26T19:55:48.865Z,100701.02
2019-04-26T19:58:20.601Z,100700.47
2019-04-26T20:00:52.381Z,100693.94
2019-04-26T20:03:24.714Z,100686.86
2019-04-26T20:05:53.651Z,100684.25
2019-04-26T20:08:23.656Z,100686.86
2019-04-26T20:10:52.656Z,100690.34
2019-04-26T20:13:22.034Z,100697.70
2019-04-26T20:15:51.431Z,100705.71
2019-04-26T20:18:22.462Z,100707.56
2019-04-26T20:20:52.138Z,100706.83
2019-04-26T20:23:22.851Z,100704.80
2019-04-26T20:25:53.069Z,100698.35
2019-04-26T20:28:22.778Z,100698.02
2019-04-26T20:31:16.992Z,100700.66
2019-04-26T20:33:47.760Z,100697.31
2019-04-26T20:36:16.337Z,100694.73
2019-04-26T20:38:47.423Z,100692.52
2019-04-26T20:41:16.950Z,100692.09
2019-04-26T20:43:56.560Z,100684.74
2019-04-26T20:46:18.752Z,100684.41
2019-04-26T20:48:52.012Z,100687.97
2019-04-26T20:51:22.461Z,100675.60
2019-04-26T20:53:51.465Z,100672.21
2019-04-26T20:56:25.929Z,100664.34
2019-04-26T20:58:57.447Z,100668.51
2019-04-26T21:01:27.164Z,100673.73
2019-04-26T21:03:59.819Z,100668.00
2019-04-26T21:06:29.231Z,100668.37
2019-04-26T21:09:06.029Z,100661.38
2019-04-26T21:11:37.255Z,100669.83
2019-04-26T21:14:07.696Z,100655.89
2019-04-26T21:16:37.213Z,100655.89
2019-04-26T21:19:06.277Z,100641.92
2019-04-26T21:21:36.988Z,100644.51
2019-04-26T21:24:06.268Z,100649.25
2019-04-26T21:27:01.652Z,100645.48
2019-04-26T21:29:52.451Z,100646.61
2019-04-26T21:32:35.469Z,100645.02
2019-04-26T21:35:09.212Z,100642.04
2019-04-26T21:37:43.137Z,100635.58
2019-04-26T21:40:23.255Z,100631.26
2019-04-26T21:43:00.484Z,100628.48
2019-04-26T21:45:33.888Z,100637.55
2019-04-26T21:48:06.819Z,100634.58
2019-04-26T21:50:38.675Z,100634.37
2019-04-26T21:53:07.032Z,100634.89
2019-04-26T21:55:38.709Z,100638.32
2019-04-26T21:58:08.285Z,100638.39
2019-04-26T22:00:53.887Z,100641.98
2019-04-26T22:03:24.647Z,100645.34
2019-04-26T22:05:56.633Z,100650.05
2019-04-26T22:08:33.001Z,100646.94
2019-04-26T22:11:03.615Z,100656.20
2019-04-26T22:13:49.683Z,100651.81
2019-04-26T22:16:34.226Z,100649.24
2019-04-26T22:19:18.198Z,100653.89
2019-04-26T22:22:05.787Z,100655.59
2019-04-26T22:24:36.153Z,100657.17
2019-04-26T22:27:04.693Z,100650.97
2019-04-26T22:29:35.343Z,100651.13
2019-04-26T22:32:07.203Z,100651.58
2019-04-26T22:34:37.333Z,100654.02
2019-04-26T22:37:11.324Z,100653.62
2019-04-26T22:39:39.829Z,100652.88
2019-04-26T22:42:10.088Z,100661.55
2019-04-26T22:44:45.604Z,100678.14
2019-04-26T22:47:24.117Z,100673.25
2019-04-26T22:49:57.469Z,100668.50
2019-04-26T22:52:27.439Z,100670.95
2019-04-26T22:55:01.577Z,100665.25
2019-04-26T22:57:33.381Z,100668.81
2019-04-26T23:00:01.994Z,100659.58
2019-04-26T23:02:31.116Z,100657.25
2019-04-26T23:05:00.614Z,100656.77
2019-04-26T23:07:30.345Z,100662.09
2019-04-26T23:09:59.261Z,100651.34
2019-04-26T23:12:35.437Z,100654.40
2019-04-26T23:15:30.191Z,100648.43
2019-04-26T23:18:13.757Z,100642.02
2019-04-26T23:20:58.134Z,100647.00
2019-04-26T23:23:26.906Z,100652.60
2019-04-26T23:26:02.373Z,100649.21
2019-04-26T23:28:36.826Z,100647.11
2019-04-26T23:31:08.170Z,100647.78
2019-04-26T23:33:36.694Z,100651.48
2019-04-26T23:36:08.039Z,100649.45
2019-04-26T23:38:38.165Z,100647.10
2019-04-26T23:41:07.521Z,100641.88
2019-04-26T23:43:36.191Z,100645.98
2019-04-26T23:46:05.041Z,100644.94
2019-04-26T23:48:35.903Z,100637.44
2019-04-26T23:51:08.197Z,100640.42
2019-04-26T23:53:35.940Z,100642.22
2019-04-26T23:56:04.869Z,100626.49
2019-04-26T23:58:40.235Z,100623.58
